BAW456 YSSY-YBBN
Flight info
| Callsign | BAW456 |
|---|---|
| Flight time | 1h 8m |
| Altitude | 39000 |
| Route | OLSEM Y193 BANDA H252 GOMOL |
| Aircraft | B77W/H-SDE1E2E3FGHIJ2J3J4J5M1RWXY/LB1D1 |
Departure
| Time | 2026-04-26 06:58 |
|---|---|
| Airport | Sydney Kingsford Smith International Airport (YSSY) |
Arrival
| Time | 2026-04-26 08:07 |
|---|---|
| Airport | Brisbane International Airport (YBBN) |
| Time | Latitude | Longitude | Altitude | Speed | Heading |
|---|---|---|---|---|---|
| 2026-04-26 05:58 | -33.93600 | 151.17679 | 35 ft | 0 kts | 76° |
| 2026-04-26 06:33 | -33.93601 | 151.17677 | 35 ft | 2 kts | 76° |
| 2026-04-26 06:33 | -33.93602 | 151.17672 | 35 ft | 2 kts | 77° |
| 2026-04-26 06:33 | -33.93605 | 151.17652 | 34 ft | 2 kts | 81° |
| 2026-04-26 06:34 | -33.93607 | 151.17633 | 31 ft | 2 kts | 97° |
| 2026-04-26 06:34 | -33.93600 | 151.17616 | 31 ft | 2 kts | 157° |
| 2026-04-26 06:34 | -33.93591 | 151.17612 | 29 ft | 0 kts | 166° |
| 2026-04-26 06:37 | -33.93625 | 151.17627 | 32 ft | 15 kts | 156° |
| 2026-04-26 06:37 | -33.93719 | 151.17677 | 28 ft | 13 kts | 161° |
| 2026-04-26 06:37 | -33.93802 | 151.17703 | 25 ft | 12 kts | 161° |
| 2026-04-26 06:37 | -33.93874 | 151.17761 | 28 ft | 12 kts | 146° |
| 2026-04-26 06:38 | -33.93946 | 151.17790 | 27 ft | 11 kts | 166° |
| 2026-04-26 06:38 | -33.94008 | 151.17806 | 28 ft | 9 kts | 168° |
| 2026-04-26 06:38 | -33.94069 | 151.17822 | 28 ft | 10 kts | 168° |
| 2026-04-26 06:38 | -33.94131 | 151.17838 | 28 ft | 8 kts | 167° |
| 2026-04-26 06:39 | -33.94188 | 151.17854 | 29 ft | 9 kts | 167° |
| 2026-04-26 06:39 | -33.94247 | 151.17870 | 29 ft | 9 kts | 167° |
| 2026-04-26 06:39 | -33.94307 | 151.17886 | 29 ft | 9 kts | 167° |
| 2026-04-26 06:39 | -33.94372 | 151.17902 | 29 ft | 10 kts | 168° |
| 2026-04-26 06:40 | -33.94442 | 151.17907 | 29 ft | 11 kts | 192° |
| 2026-04-26 06:40 | -33.94507 | 151.17888 | 28 ft | 9 kts | 186° |
| 2026-04-26 06:40 | -33.94573 | 151.17898 | 28 ft | 10 kts | 169° |
| 2026-04-26 06:40 | -33.94644 | 151.17914 | 28 ft | 12 kts | 169° |
| 2026-04-26 06:41 | -33.94730 | 151.17937 | 27 ft | 13 kts | 167° |
| 2026-04-26 06:41 | -33.94825 | 151.17962 | 28 ft | 15 kts | 168° |
| 2026-04-26 06:41 | -33.94881 | 151.17976 | 28 ft | 0 kts | 168° |
| 2026-04-26 06:41 | -33.94914 | 151.17984 | 26 ft | 13 kts | 168° |
| 2026-04-26 06:42 | -33.94938 | 151.17991 | 27 ft | 0 kts | 167° |
| 2026-04-26 06:42 | -33.94980 | 151.18002 | 29 ft | 19 kts | 167° |
| 2026-04-26 06:42 | -33.95028 | 151.18015 | 30 ft | 11 kts | 169° |
| 2026-04-26 06:43 | -33.95069 | 151.18032 | 31 ft | 4 kts | 148° |
| 2026-04-26 06:43 | -33.95087 | 151.18057 | 31 ft | 0 kts | 121° |
| 2026-04-26 06:43 | -33.95090 | 151.18066 | 31 ft | 1 kts | 114° |
| 2026-04-26 06:43 | -33.95093 | 151.18079 | 31 ft | 3 kts | 104° |
| 2026-04-26 06:44 | -33.95095 | 151.18101 | 30 ft | 4 kts | 92° |
| 2026-04-26 06:44 | -33.95095 | 151.18111 | 30 ft | 0 kts | 90° |
| 2026-04-26 06:44 | -33.95094 | 151.18124 | 30 ft | 3 kts | 86° |
| 2026-04-26 06:44 | -33.95093 | 151.18136 | 30 ft | 0 kts | 86° |
| 2026-04-26 06:45 | -33.95093 | 151.18139 | 30 ft | 1 kts | 86° |
| 2026-04-26 06:45 | -33.95091 | 151.18163 | 30 ft | 4 kts | 81° |
| 2026-04-26 06:45 | -33.95085 | 151.18211 | 29 ft | 7 kts | 81° |
| 2026-04-26 06:45 | -33.95074 | 151.18273 | 30 ft | 8 kts | 78° |
| 2026-04-26 06:46 | -33.95061 | 151.18342 | 30 ft | 9 kts | 77° |
| 2026-04-26 06:46 | -33.95055 | 151.18375 | 31 ft | 0 kts | 77° |
| 2026-04-26 06:46 | -33.95053 | 151.18385 | 31 ft | 2 kts | 77° |
| 2026-04-26 06:46 | -33.95052 | 151.18390 | 31 ft | 1 kts | 77° |
| 2026-04-26 06:47 | -33.95050 | 151.18402 | 31 ft | 0 kts | 77° |
| 2026-04-26 06:47 | -33.95050 | 151.18405 | 31 ft | 0 kts | 77° |
| 2026-04-26 06:47 | -33.95049 | 151.18407 | 31 ft | 0 kts | 77° |
| 2026-04-26 06:47 | -33.95049 | 151.18408 | 31 ft | 0 kts | 77° |
| 2026-04-26 06:48 | -33.95049 | 151.18410 | 31 ft | 1 kts | 77° |
| 2026-04-26 06:48 | -33.95047 | 151.18425 | 31 ft | 1 kts | 84° |
| 2026-04-26 06:48 | -33.95050 | 151.18465 | 31 ft | 9 kts | 104° |
| 2026-04-26 06:49 | -33.95110 | 151.18537 | 32 ft | 15 kts | 140° |
| 2026-04-26 06:49 | -33.95191 | 151.18622 | 31 ft | 16 kts | 137° |
| 2026-04-26 06:49 | -33.95279 | 151.18699 | 31 ft | 16 kts | 153° |
| 2026-04-26 06:49 | -33.95382 | 151.18738 | 29 ft | 16 kts | 167° |
| 2026-04-26 06:50 | -33.95498 | 151.18769 | 27 ft | 17 kts | 167° |
| 2026-04-26 06:50 | -33.95617 | 151.18800 | 29 ft | 17 kts | 168° |
| 2026-04-26 06:50 | -33.95733 | 151.18830 | 30 ft | 17 kts | 167° |
| 2026-04-26 06:50 | -33.95852 | 151.18860 | 31 ft | 17 kts | 168° |
| 2026-04-26 06:51 | -33.95970 | 151.18891 | 32 ft | 17 kts | 168° |
| 2026-04-26 06:51 | -33.96217 | 151.18955 | 31 ft | 18 kts | 168° |
| 2026-04-26 06:51 | -33.96343 | 151.18988 | 30 ft | 19 kts | 168° |
| 2026-04-26 06:52 | -33.96481 | 151.19023 | 29 ft | 22 kts | 168° |
| 2026-04-26 06:52 | -33.96631 | 151.19063 | 27 ft | 22 kts | 167° |
| 2026-04-26 06:52 | -33.96784 | 151.19070 | 25 ft | 22 kts | 182° |
| 2026-04-26 06:52 | -33.96935 | 151.19098 | 25 ft | 22 kts | 168° |
| 2026-04-26 06:53 | -33.97071 | 151.19134 | 28 ft | 15 kts | 163° |
| 2026-04-26 06:53 | -33.97124 | 151.19198 | 30 ft | 10 kts | 100° |
| 2026-04-26 06:53 | -33.97122 | 151.19248 | 31 ft | 0 kts | 82° |
| 2026-04-26 06:56 | -33.97110 | 151.19322 | 30 ft | 12 kts | 76° |
| 2026-04-26 06:56 | -33.97095 | 151.19359 | 27 ft | 2 kts | 37° |
| 2026-04-26 06:56 | -33.97066 | 151.19368 | 26 ft | 3 kts | 10° |
| 2026-04-26 06:57 | -33.97049 | 151.19369 | 31 ft | 0 kts | 349° |
| 2026-04-26 06:58 | -33.96955 | 151.19347 | 25 ft | 44 kts | 348° |
| 2026-04-26 06:58 | -33.96221 | 151.19159 | 32 ft | 171 kts | 348° |
| 2026-04-26 06:58 | -33.94832 | 151.18787 | 977 ft | 217 kts | 349° |
| 2026-04-26 06:58 | -33.93301 | 151.18631 | 2637 ft | 229 kts | 14° |
| 2026-04-26 06:59 | -33.91882 | 151.19542 | 3872 ft | 236 kts | 37° |
| 2026-04-26 06:59 | -33.90828 | 151.20621 | 4553 ft | 247 kts | 40° |
| 2026-04-26 06:59 | -33.89493 | 151.21969 | 4999 ft | 250 kts | 38° |
| 2026-04-26 06:59 | -33.88113 | 151.23267 | 4997 ft | 250 kts | 36° |
| 2026-04-26 07:00 | -33.86726 | 151.24514 | 4992 ft | 249 kts | 35° |
| 2026-04-26 07:00 | -33.85318 | 151.25753 | 5007 ft | 251 kts | 35° |
| 2026-04-26 07:00 | -33.84003 | 151.27114 | 4999 ft | 252 kts | 52° |
| 2026-04-26 07:00 | -33.83247 | 151.29021 | 5012 ft | 256 kts | 72° |
| 2026-04-26 07:01 | -33.82729 | 151.31079 | 5022 ft | 259 kts | 72° |
| 2026-04-26 07:01 | -33.82189 | 151.33149 | 5014 ft | 260 kts | 72° |
| 2026-04-26 07:01 | -33.81642 | 151.35219 | 5133 ft | 257 kts | 67° |
| 2026-04-26 07:01 | -33.80716 | 151.37014 | 5874 ft | 254 kts | 49° |
| 2026-04-26 07:02 | -33.79554 | 151.38678 | 6837 ft | 264 kts | 50° |
| 2026-04-26 07:02 | -33.78392 | 151.40390 | 7973 ft | 264 kts | 51° |
| 2026-04-26 07:02 | -33.77225 | 151.42116 | 9076 ft | 268 kts | 51° |
| 2026-04-26 07:02 | -33.76040 | 151.43869 | 10178 ft | 271 kts | 51° |
| 2026-04-26 07:03 | -33.74835 | 151.45653 | 11110 ft | 278 kts | 51° |
| 2026-04-26 07:03 | -33.73625 | 151.47445 | 12114 ft | 281 kts | 51° |
| 2026-04-26 07:03 | -33.72375 | 151.49295 | 13078 ft | 287 kts | 51° |
| 2026-04-26 07:03 | -33.71103 | 151.51179 | 14087 ft | 292 kts | 51° |
| 2026-04-26 07:04 | -33.69815 | 151.53085 | 15017 ft | 295 kts | 51° |
| 2026-04-26 07:04 | -33.68518 | 151.55005 | 16021 ft | 297 kts | 51° |
| 2026-04-26 07:04 | -33.67206 | 151.56942 | 17018 ft | 299 kts | 52° |
| 2026-04-26 07:04 | -33.65883 | 151.58897 | 17938 ft | 306 kts | 52° |
| 2026-04-26 07:05 | -33.64404 | 151.60797 | 18660 ft | 320 kts | 42° |
| 2026-04-26 07:05 | -33.62543 | 151.62477 | 18891 ft | 349 kts | 35° |
| 2026-04-26 07:05 | -33.60446 | 151.64094 | 19075 ft | 377 kts | 33° |
| 2026-04-26 07:05 | -33.58144 | 151.65824 | 19333 ft | 401 kts | 33° |
| 2026-04-26 07:06 | -33.55757 | 151.67660 | 20022 ft | 410 kts | 34° |
| 2026-04-26 07:06 | -33.53345 | 151.69553 | 20779 ft | 418 kts | 34° |
| 2026-04-26 07:06 | -33.50846 | 151.71383 | 21600 ft | 424 kts | 29° |
| 2026-04-26 07:06 | -33.48146 | 151.72878 | 22449 ft | 430 kts | 23° |
| 2026-04-26 07:07 | -33.45300 | 151.74033 | 23271 ft | 436 kts | 16° |
| 2026-04-26 07:07 | -33.42339 | 151.74927 | 24009 ft | 442 kts | 15° |
| 2026-04-26 07:07 | -33.39328 | 151.75835 | 24635 ft | 447 kts | 15° |
| 2026-04-26 07:07 | -33.36329 | 151.76770 | 25271 ft | 452 kts | 16° |
| 2026-04-26 07:08 | -33.33263 | 151.77749 | 25914 ft | 457 kts | 16° |
| 2026-04-26 07:08 | -33.30174 | 151.78749 | 26506 ft | 462 kts | 16° |
| 2026-04-26 07:08 | -33.27046 | 151.79766 | 27102 ft | 467 kts | 16° |
| 2026-04-26 07:08 | -33.23887 | 151.80791 | 27689 ft | 472 kts | 16° |
| 2026-04-26 07:09 | -33.20698 | 151.81824 | 28266 ft | 477 kts | 16° |
| 2026-04-26 07:09 | -33.18575 | 151.82509 | 28634 ft | 480 kts | 16° |
| 2026-04-26 07:09 | -33.14274 | 151.83896 | 29334 ft | 486 kts | 15° |
| 2026-04-26 07:09 | -33.12097 | 151.84596 | 29778 ft | 487 kts | 15° |
| 2026-04-26 07:10 | -33.03395 | 151.87392 | 30600 ft | 502 kts | 15° |
| 2026-04-26 07:11 | -32.98311 | 151.89021 | 31605 ft | 496 kts | 15° |
| 2026-04-26 07:11 | -32.94971 | 151.90091 | 32162 ft | 495 kts | 15° |
| 2026-04-26 07:11 | -32.91649 | 151.91155 | 32675 ft | 495 kts | 15° |
| 2026-04-26 07:11 | -32.88326 | 151.92218 | 33166 ft | 495 kts | 15° |
| 2026-04-26 07:12 | -32.84992 | 151.93284 | 33606 ft | 495 kts | 15° |
| 2026-04-26 07:12 | -32.81667 | 151.94347 | 34149 ft | 494 kts | 15° |
| 2026-04-26 07:12 | -32.78353 | 151.95405 | 34634 ft | 492 kts | 15° |
| 2026-04-26 07:12 | -32.75042 | 151.96461 | 35053 ft | 491 kts | 15° |
| 2026-04-26 07:13 | -32.71743 | 151.97512 | 35454 ft | 491 kts | 15° |
| 2026-04-26 07:13 | -32.68447 | 151.98562 | 35863 ft | 490 kts | 15° |
| 2026-04-26 07:13 | -32.65157 | 151.99609 | 36274 ft | 489 kts | 15° |
| 2026-04-26 07:13 | -32.61906 | 152.00643 | 36674 ft | 488 kts | 15° |
| 2026-04-26 07:14 | -32.58628 | 152.01684 | 37061 ft | 487 kts | 15° |
| 2026-04-26 07:14 | -32.55353 | 152.02724 | 37450 ft | 487 kts | 15° |
| 2026-04-26 07:14 | -32.52083 | 152.03762 | 37829 ft | 486 kts | 15° |
| 2026-04-26 07:14 | -32.48816 | 152.04798 | 38225 ft | 484 kts | 15° |
| 2026-04-26 07:15 | -32.45562 | 152.05829 | 38611 ft | 484 kts | 14° |
| 2026-04-26 07:15 | -32.42309 | 152.06859 | 38926 ft | 483 kts | 14° |
| 2026-04-26 07:15 | -32.39048 | 152.07890 | 39154 ft | 485 kts | 14° |
| 2026-04-26 07:16 | -32.32488 | 152.09962 | 39246 ft | 490 kts | 14° |
| 2026-04-26 07:16 | -32.25950 | 152.12026 | 39246 ft | 487 kts | 14° |
| 2026-04-26 07:17 | -32.19440 | 152.14077 | 39247 ft | 482 kts | 14° |
| 2026-04-26 07:17 | -32.12970 | 152.16112 | 39255 ft | 481 kts | 14° |
| 2026-04-26 07:18 | -32.06498 | 152.18144 | 39262 ft | 481 kts | 14° |
| 2026-04-26 07:18 | -32.00012 | 152.20179 | 39263 ft | 482 kts | 14° |
| 2026-04-26 07:19 | -31.93517 | 152.22213 | 39263 ft | 484 kts | 14° |
| 2026-04-26 07:19 | -31.87044 | 152.24238 | 39265 ft | 485 kts | 14° |
| 2026-04-26 07:20 | -31.80495 | 152.26283 | 39262 ft | 486 kts | 14° |
| 2026-04-26 07:20 | -31.73939 | 152.28327 | 39258 ft | 487 kts | 14° |
| 2026-04-26 07:21 | -31.67410 | 152.30360 | 39265 ft | 487 kts | 14° |
| 2026-04-26 07:21 | -31.60848 | 152.32400 | 39265 ft | 487 kts | 14° |
| 2026-04-26 07:22 | -31.54299 | 152.34434 | 39269 ft | 486 kts | 14° |
| 2026-04-26 07:22 | -31.47767 | 152.36459 | 39265 ft | 485 kts | 14° |
| 2026-04-26 07:23 | -31.41238 | 152.38480 | 39265 ft | 484 kts | 14° |
| 2026-04-26 07:23 | -31.34730 | 152.40492 | 39272 ft | 483 kts | 14° |
| 2026-04-26 07:24 | -31.28234 | 152.42497 | 39264 ft | 482 kts | 13° |
| 2026-04-26 07:24 | -31.21780 | 152.44486 | 39270 ft | 482 kts | 13° |
| 2026-04-26 07:25 | -31.15342 | 152.46468 | 39270 ft | 482 kts | 13° |
| 2026-04-26 07:25 | -31.08853 | 152.48462 | 39263 ft | 482 kts | 13° |
| 2026-04-26 07:26 | -31.02354 | 152.50458 | 39267 ft | 483 kts | 13° |
| 2026-04-26 07:26 | -30.95854 | 152.52450 | 39264 ft | 483 kts | 13° |
| 2026-04-26 07:27 | -30.89378 | 152.54432 | 39261 ft | 484 kts | 13° |
| 2026-04-26 07:27 | -30.82837 | 152.56433 | 39271 ft | 485 kts | 13° |
| 2026-04-26 07:28 | -30.76313 | 152.58513 | 39265 ft | 487 kts | 15° |
| 2026-04-26 07:28 | -30.69840 | 152.60900 | 39271 ft | 488 kts | 17° |
| 2026-04-26 07:29 | -30.63413 | 152.63306 | 39279 ft | 488 kts | 16° |
| 2026-04-26 07:29 | -30.56931 | 152.65685 | 39258 ft | 488 kts | 15° |
| 2026-04-26 07:30 | -30.50457 | 152.68030 | 39267 ft | 487 kts | 15° |
| 2026-04-26 07:30 | -30.43977 | 152.70370 | 39269 ft | 487 kts | 15° |
| 2026-04-26 07:31 | -30.37538 | 152.72694 | 39271 ft | 487 kts | 15° |
| 2026-04-26 07:31 | -30.31059 | 152.75031 | 39271 ft | 486 kts | 15° |
| 2026-04-26 07:32 | -30.24631 | 152.77348 | 39265 ft | 486 kts | 15° |
| 2026-04-26 07:32 | -30.18170 | 152.79672 | 39263 ft | 486 kts | 15° |
| 2026-04-26 07:33 | -30.11712 | 152.81993 | 39260 ft | 485 kts | 15° |
| 2026-04-26 07:33 | -30.05252 | 152.84310 | 39251 ft | 486 kts | 15° |
| 2026-04-26 07:34 | -29.98793 | 152.86625 | 39261 ft | 486 kts | 15° |
| 2026-04-26 07:34 | -29.92329 | 152.88938 | 39245 ft | 487 kts | 15° |
| 2026-04-26 07:35 | -29.85854 | 152.91242 | 39249 ft | 487 kts | 15° |
| 2026-04-26 07:35 | -29.79373 | 152.93536 | 39248 ft | 487 kts | 15° |
| 2026-04-26 07:36 | -29.72881 | 152.95833 | 39243 ft | 487 kts | 15° |
| 2026-04-26 07:36 | -29.66431 | 152.98115 | 39234 ft | 487 kts | 15° |
| 2026-04-26 07:37 | -29.59946 | 153.00405 | 39242 ft | 487 kts | 15° |
| 2026-04-26 07:37 | -29.53466 | 153.02691 | 39237 ft | 487 kts | 15° |
| 2026-04-26 07:38 | -29.46991 | 153.04971 | 39233 ft | 486 kts | 15° |
| 2026-04-26 07:38 | -29.40511 | 153.07251 | 39230 ft | 486 kts | 14° |
| 2026-04-26 07:39 | -29.34039 | 153.09525 | 39235 ft | 486 kts | 14° |
| 2026-04-26 07:39 | -29.27573 | 153.11794 | 39234 ft | 486 kts | 14° |
| 2026-04-26 07:40 | -29.21139 | 153.14059 | 39233 ft | 486 kts | 14° |
| 2026-04-26 07:40 | -29.14640 | 153.16347 | 39189 ft | 492 kts | 14° |
| 2026-04-26 07:41 | -29.08027 | 153.18671 | 39104 ft | 500 kts | 14° |
| 2026-04-26 07:41 | -29.01348 | 153.21016 | 39107 ft | 502 kts | 14° |
| 2026-04-26 07:42 | -28.94745 | 153.23334 | 39060 ft | 498 kts | 14° |
| 2026-04-26 07:42 | -28.91434 | 153.24494 | 38959 ft | 496 kts | 14° |
| 2026-04-26 07:42 | -28.88144 | 153.25646 | 38869 ft | 493 kts | 14° |
| 2026-04-26 07:42 | -28.84893 | 153.26785 | 38636 ft | 484 kts | 14° |
| 2026-04-26 07:43 | -28.81692 | 153.27906 | 38076 ft | 480 kts | 14° |
| 2026-04-26 07:43 | -28.78484 | 153.29025 | 37134 ft | 485 kts | 14° |
| 2026-04-26 07:43 | -28.75238 | 153.30155 | 36104 ft | 492 kts | 14° |
| 2026-04-26 07:43 | -28.71933 | 153.31305 | 35104 ft | 498 kts | 14° |
| 2026-04-26 07:44 | -28.68608 | 153.32462 | 34272 ft | 501 kts | 14° |
| 2026-04-26 07:44 | -28.65278 | 153.33623 | 33613 ft | 498 kts | 14° |
| 2026-04-26 07:44 | -28.61978 | 153.34775 | 33143 ft | 491 kts | 14° |
| 2026-04-26 07:44 | -28.58772 | 153.35894 | 32654 ft | 485 kts | 14° |
| 2026-04-26 07:45 | -28.55558 | 153.37013 | 32124 ft | 481 kts | 14° |
| 2026-04-26 07:45 | -28.52370 | 153.38120 | 31562 ft | 478 kts | 14° |
| 2026-04-26 07:45 | -28.49196 | 153.39223 | 30998 ft | 476 kts | 14° |
| 2026-04-26 07:45 | -28.46040 | 153.40318 | 30442 ft | 473 kts | 14° |
| 2026-04-26 07:46 | -28.42890 | 153.41409 | 29882 ft | 469 kts | 14° |
| 2026-04-26 07:46 | -28.39782 | 153.42487 | 29351 ft | 464 kts | 14° |
| 2026-04-26 07:46 | -28.36706 | 153.43552 | 28872 ft | 459 kts | 14° |
| 2026-04-26 07:46 | -28.33658 | 153.44607 | 28344 ft | 455 kts | 15° |
| 2026-04-26 07:47 | -28.30677 | 153.45639 | 27835 ft | 452 kts | 15° |
| 2026-04-26 07:47 | -28.27683 | 153.46675 | 27329 ft | 448 kts | 15° |
| 2026-04-26 07:47 | -28.24711 | 153.47703 | 26847 ft | 444 kts | 15° |
| 2026-04-26 07:47 | -28.21769 | 153.48719 | 26375 ft | 440 kts | 15° |
| 2026-04-26 07:48 | -28.18857 | 153.49718 | 25915 ft | 433 kts | 14° |
| 2026-04-26 07:48 | -28.15891 | 153.50240 | 25276 ft | 429 kts | 356° |
| 2026-04-26 07:48 | -28.12974 | 153.49713 | 24670 ft | 422 kts | 345° |
| 2026-04-26 07:48 | -28.10094 | 153.49021 | 24098 ft | 423 kts | 347° |
| 2026-04-26 07:49 | -28.07208 | 153.48388 | 23679 ft | 420 kts | 348° |
| 2026-04-26 07:49 | -28.04345 | 153.47788 | 23197 ft | 416 kts | 348° |
| 2026-04-26 07:49 | -28.01507 | 153.47204 | 22678 ft | 414 kts | 348° |
| 2026-04-26 07:50 | -27.95852 | 153.46042 | 21525 ft | 413 kts | 349° |
| 2026-04-26 07:50 | -27.93030 | 153.45460 | 21000 ft | 412 kts | 349° |
| 2026-04-26 07:50 | -27.90226 | 153.44882 | 20624 ft | 406 kts | 349° |
| 2026-04-26 07:50 | -27.87493 | 153.44319 | 20198 ft | 403 kts | 349° |
| 2026-04-26 07:51 | -27.84755 | 153.43754 | 19780 ft | 399 kts | 350° |
| 2026-04-26 07:51 | -27.82032 | 153.43192 | 19403 ft | 395 kts | 350° |
| 2026-04-26 07:51 | -27.79334 | 153.42637 | 18985 ft | 392 kts | 351° |
| 2026-04-26 07:51 | -27.76663 | 153.42087 | 18612 ft | 389 kts | 351° |
| 2026-04-26 07:52 | -27.74015 | 153.41542 | 18267 ft | 383 kts | 351° |
| 2026-04-26 07:52 | -27.71383 | 153.40999 | 17850 ft | 380 kts | 351° |
| 2026-04-26 07:52 | -27.68796 | 153.40465 | 17461 ft | 376 kts | 352° |
| 2026-04-26 07:52 | -27.66256 | 153.39942 | 17019 ft | 374 kts | 351° |
| 2026-04-26 07:53 | -27.63695 | 153.39440 | 16576 ft | 370 kts | 354° |
| 2026-04-26 07:53 | -27.61135 | 153.39319 | 16093 ft | 367 kts | 4° |
| 2026-04-26 07:53 | -27.58597 | 153.39463 | 15705 ft | 361 kts | 5° |
| 2026-04-26 07:53 | -27.56180 | 153.39654 | 15452 ft | 334 kts | 6° |
| 2026-04-26 07:54 | -27.53936 | 153.39818 | 15096 ft | 313 kts | 6° |
| 2026-04-26 07:54 | -27.51802 | 153.39954 | 14545 ft | 302 kts | 6° |
| 2026-04-26 07:54 | -27.49719 | 153.40071 | 13862 ft | 297 kts | 5° |
| 2026-04-26 07:54 | -27.48352 | 153.40143 | 13330 ft | 295 kts | 5° |
| 2026-04-26 07:55 | -27.45623 | 153.40278 | 12271 ft | 292 kts | 5° |
| 2026-04-26 07:55 | -27.44282 | 153.40341 | 11772 ft | 291 kts | 5° |
| 2026-04-26 07:55 | -27.42269 | 153.40434 | 11045 ft | 288 kts | 5° |
| 2026-04-26 07:55 | -27.40272 | 153.40525 | 10321 ft | 286 kts | 5° |
| 2026-04-26 07:56 | -27.37654 | 153.40645 | 9455 ft | 281 kts | 6° |
| 2026-04-26 07:56 | -27.36336 | 153.40706 | 9312 ft | 289 kts | 6° |
| 2026-04-26 07:56 | -27.34299 | 153.40801 | 8575 ft | 294 kts | 5° |
| 2026-04-26 07:56 | -27.32279 | 153.40892 | 7937 ft | 284 kts | 6° |
| 2026-04-26 07:57 | -27.30375 | 153.40975 | 7861 ft | 271 kts | 6° |
| 2026-04-26 07:57 | -27.28479 | 153.41063 | 7870 ft | 267 kts | 6° |
| 2026-04-26 07:57 | -27.26697 | 153.41141 | 7646 ft | 247 kts | 6° |
| 2026-04-26 07:57 | -27.25047 | 153.41215 | 7408 ft | 228 kts | 6° |
| 2026-04-26 07:58 | -27.23519 | 153.41282 | 7144 ft | 213 kts | 7° |
| 2026-04-26 07:58 | -27.22042 | 153.41351 | 6600 ft | 215 kts | 7° |
| 2026-04-26 07:58 | -27.20513 | 153.41423 | 5867 ft | 224 kts | 5° |
| 2026-04-26 07:58 | -27.18972 | 153.41020 | 5109 ft | 238 kts | 330° |
| 2026-04-26 07:59 | -27.17680 | 153.39815 | 4396 ft | 243 kts | 320° |
| 2026-04-26 07:59 | -27.16407 | 153.38574 | 3686 ft | 247 kts | 321° |
| 2026-04-26 07:59 | -27.15116 | 153.37350 | 3283 ft | 236 kts | 321° |
| 2026-04-26 07:59 | -27.13909 | 153.36220 | 3042 ft | 215 kts | 320° |
| 2026-04-26 08:00 | -27.13072 | 153.34995 | 2949 ft | 181 kts | 283° |
| 2026-04-26 08:00 | -27.12952 | 153.33734 | 2622 ft | 157 kts | 258° |
| 2026-04-26 08:00 | -27.13151 | 153.32351 | 2511 ft | 179 kts | 240° |
| 2026-04-26 08:00 | -27.13723 | 153.31104 | 2804 ft | 188 kts | 237° |
| 2026-04-26 08:01 | -27.14307 | 153.29770 | 2882 ft | 191 kts | 238° |
| 2026-04-26 08:01 | -27.14877 | 153.28427 | 2960 ft | 191 kts | 239° |
| 2026-04-26 08:01 | -27.15449 | 153.27080 | 3002 ft | 194 kts | 238° |
| 2026-04-26 08:01 | -27.16167 | 153.25815 | 3004 ft | 189 kts | 213° |
| 2026-04-26 08:02 | -27.17267 | 153.25095 | 3037 ft | 184 kts | 201° |
| 2026-04-26 08:02 | -27.18397 | 153.24397 | 3021 ft | 184 kts | 202° |
| 2026-04-26 08:02 | -27.19516 | 153.23720 | 3011 ft | 182 kts | 201° |
| 2026-04-26 08:02 | -27.20618 | 153.23078 | 3032 ft | 180 kts | 200° |
| 2026-04-26 08:03 | -27.21717 | 153.22444 | 3060 ft | 176 kts | 200° |
| 2026-04-26 08:03 | -27.22812 | 153.21819 | 3039 ft | 177 kts | 200° |
| 2026-04-26 08:03 | -27.23920 | 153.21186 | 2939 ft | 181 kts | 200° |
| 2026-04-26 08:03 | -27.25056 | 153.20536 | 2730 ft | 182 kts | 200° |
| 2026-04-26 08:04 | -27.26159 | 153.19904 | 2496 ft | 176 kts | 200° |
| 2026-04-26 08:04 | -27.27241 | 153.19284 | 2263 ft | 175 kts | 200° |
| 2026-04-26 08:04 | -27.28323 | 153.18665 | 2037 ft | 173 kts | 200° |
| 2026-04-26 08:04 | -27.29392 | 153.18053 | 1804 ft | 172 kts | 200° |
| 2026-04-26 08:05 | -27.30470 | 153.17437 | 1560 ft | 173 kts | 201° |
| 2026-04-26 08:05 | -27.31519 | 153.16837 | 1339 ft | 167 kts | 202° |
| 2026-04-26 08:05 | -27.32565 | 153.16235 | 1111 ft | 169 kts | 201° |
| 2026-04-26 08:05 | -27.33607 | 153.15636 | 919 ft | 165 kts | 201° |
| 2026-04-26 08:06 | -27.34624 | 153.15026 | 680 ft | 167 kts | 204° |
| 2026-04-26 08:06 | -27.35688 | 153.14459 | 485 ft | 176 kts | 201° |
| 2026-04-26 08:06 | -27.36788 | 153.13805 | 208 ft | 179 kts | 205° |
| 2026-04-26 08:06 | -27.37868 | 153.13201 | 30 ft | 167 kts | 204° |
| 2026-04-26 08:07 | -27.38624 | 153.12779 | 26 ft | 51 kts | 207° |
| 2026-04-26 08:07 | -27.38773 | 153.12680 | 23 ft | 36 kts | 209° |
| 2026-04-26 08:07 | -27.38943 | 153.12537 | 26 ft | 26 kts | 225° |
| 2026-04-26 08:07 | -27.39053 | 153.12376 | 24 ft | 26 kts | 235° |
| 2026-04-26 08:08 | -27.39122 | 153.12253 | 23 ft | 0 kts | 239° |
| 2026-04-26 08:08 | -27.39128 | 153.12227 | 27 ft | 15 kts | 259° |
| 2026-04-26 08:08 | -27.39161 | 153.12106 | 27 ft | 18 kts | 220° |
| 2026-04-26 08:08 | -27.39266 | 153.12036 | 25 ft | 18 kts | 206° |
| 2026-04-26 08:09 | -27.39375 | 153.11975 | 24 ft | 18 kts | 207° |
| 2026-04-26 08:09 | -27.39484 | 153.11913 | 24 ft | 18 kts | 206° |
| 2026-04-26 08:09 | -27.39593 | 153.11853 | 27 ft | 18 kts | 206° |
| 2026-04-26 08:09 | -27.39701 | 153.11787 | 25 ft | 18 kts | 208° |
| 2026-04-26 08:10 | -27.39803 | 153.11727 | 25 ft | 3 kts | 206° |